createdAt,value
2018-09-03T00:00:33.404Z,69.72
2018-09-03T00:01:33.361Z,70.01
2018-09-03T00:03:26.201Z,70.78
2018-09-03T00:04:26.145Z,70.29
2018-09-03T00:06:18.982Z,70.68
2018-09-03T00:07:18.919Z,70.49
2018-09-03T00:09:11.744Z,70.29
2018-09-03T00:10:11.705Z,71.06
2018-09-03T00:12:04.530Z,71.16
2018-09-03T00:13:04.495Z,70.26
2018-09-03T00:14:57.791Z,70.45
2018-09-03T00:15:57.760Z,70.93
2018-09-03T00:17:50.598Z,71.31
2018-09-03T00:18:50.597Z,70.87
2018-09-03T00:20:43.351Z,71.98
2018-09-03T00:21:43.313Z,72.02
2018-09-03T00:23:36.142Z,71.73
2018-09-03T00:24:36.095Z,71.73
2018-09-03T00:26:28.901Z,71.83
2018-09-03T00:27:28.872Z,72.22
2018-09-03T00:29:21.701Z,72.79
2018-09-03T00:30:21.658Z,72.79
2018-09-03T00:32:14.465Z,73.27
2018-09-03T00:33:14.436Z,72.89
2018-09-03T00:35:07.275Z,72.89
2018-09-03T00:36:07.220Z,73.08
2018-09-03T00:38:00.558Z,73.18
2018-09-03T00:39:00.502Z,73.46
2018-09-03T00:40:53.306Z,73.94
2018-09-03T00:41:53.287Z,73.85
2018-09-03T00:43:46.108Z,73.75
2018-09-03T00:44:46.063Z,74.23
2018-09-03T00:46:38.982Z,74.13
2018-09-03T00:47:38.837Z,74.33
2018-09-03T00:49:32.162Z,74.27
2018-09-03T00:50:32.112Z,74.27
2018-09-03T00:52:25.415Z,74.65
2018-09-03T00:53:25.397Z,74.55
2018-09-03T00:55:18.213Z,74.94
2018-09-03T00:56:18.168Z,75.13
2018-09-03T00:58:11.001Z,75.23
2018-09-03T00:59:10.968Z,75.23
2018-09-03T01:01:03.787Z,75.04
2018-09-03T01:02:03.737Z,75.23
2018-09-03T01:03:56.562Z,74.85
2018-09-03T01:04:56.509Z,74.75
2018-09-03T01:06:49.323Z,74.27
2018-09-03T01:07:49.292Z,74.55
2018-09-03T01:09:42.616Z,74.37
2018-09-03T01:10:42.576Z,74.37
2018-09-03T01:12:35.380Z,74.65
2018-09-03T01:13:35.348Z,74.55
2018-09-03T01:15:28.178Z,75.04
2018-09-03T01:16:28.128Z,74.65
2018-09-03T01:18:21.444Z,74.27
2018-09-03T01:19:21.410Z,74.37
2018-09-03T01:21:14.257Z,74.37
2018-09-03T01:22:14.194Z,74.27
2018-09-03T01:24:07.528Z,74.46
2018-09-03T01:25:07.470Z,74.55
2018-09-03T01:27:00.293Z,74.27
2018-09-03T01:28:00.245Z,74.75
2018-09-03T01:29:53.088Z,75.04
2018-09-03T01:30:53.034Z,74.46
2018-09-03T01:32:45.854Z,74.65
2018-09-03T01:33:45.816Z,75.13
2018-09-03T01:35:38.640Z,75.23
2018-09-03T01:36:38.580Z,74.75
2018-09-03T01:38:31.895Z,74.75
2018-09-03T01:39:31.861Z,74.55
2018-09-03T01:41:24.691Z,74.85
2018-09-03T01:42:24.640Z,75.04
2018-09-03T01:44:17.464Z,74.94
2018-09-03T01:45:17.419Z,74.27
2018-09-03T01:47:10.255Z,74.94
2018-09-03T01:48:10.214Z,75.04
2018-09-03T01:50:03.513Z,74.94
2018-09-03T01:51:03.475Z,75.04
2018-09-03T01:52:56.314Z,75.04
2018-09-03T01:53:56.287Z,74.85
2018-09-03T01:55:49.069Z,75.27
2018-09-03T01:56:49.042Z,75.04
2018-09-03T01:58:41.884Z,75.13
2018-09-03T01:59:41.821Z,75.13
2018-09-03T02:01:34.644Z,75.32
2018-09-03T02:02:34.605Z,75.23
2018-09-03T02:04:27.420Z,75.42
2018-09-03T02:05:27.380Z,75.52
2018-09-03T02:07:20.696Z,75.23
2018-09-03T02:08:20.656Z,75.37
2018-09-03T02:10:13.957Z,75.27
2018-09-03T02:11:13.936Z,75.62
2018-09-03T02:13:06.762Z,75.27
2018-09-03T02:14:06.717Z,75.75
2018-09-03T02:15:59.531Z,75.17
2018-09-03T02:16:59.492Z,75.65
2018-09-03T02:18:52.314Z,75.17
2018-09-03T02:19:52.280Z,75.07
2018-09-03T02:21:45.113Z,74.98
2018-09-03T02:22:45.074Z,75.13
2018-09-03T02:24:37.902Z,74.98
2018-09-03T02:25:37.852Z,75.27
2018-09-03T02:27:31.174Z,75.27
2018-09-03T02:28:31.119Z,75.23
2018-09-03T02:30:24.425Z,75.27
2018-09-03T02:31:24.406Z,75.17
2018-09-03T02:33:17.724Z,75.17
2018-09-03T02:34:17.672Z,75.37
2018-09-03T02:36:10.492Z,75.37
2018-09-03T02:37:10.460Z,75.75
2018-09-03T02:39:03.295Z,75.46
2018-09-03T02:40:03.250Z,75.46
2018-09-03T02:41:56.050Z,75.27
2018-09-03T02:42:56.020Z,75.07
2018-09-03T02:44:48.871Z,75.27
2018-09-03T02:45:48.805Z,75.27
2018-09-03T02:47:41.618Z,75.65
2018-09-03T02:48:41.600Z,75.65
2018-09-03T02:50:34.418Z,75.94
2018-09-03T02:51:34.376Z,75.84
2018-09-03T02:53:27.204Z,75.75
2018-09-03T02:54:27.166Z,75.75
2018-09-03T02:56:19.968Z,75.84
2018-09-03T02:57:19.938Z,76.14
2018-09-03T02:59:12.772Z,75.75
2018-09-03T03:00:12.723Z,75.94
2018-09-03T03:02:05.539Z,75.46
2018-09-03T03:03:05.508Z,75.56
2018-09-03T03:04:58.337Z,75.75
2018-09-03T03:05:58.297Z,75.75
2018-09-03T03:07:51.610Z,75.07
2018-09-03T03:08:51.576Z,75.07
2018-09-03T03:10:44.883Z,75.27
2018-09-03T03:11:44.888Z,75.75
2018-09-03T03:13:37.658Z,76.04
2018-09-03T03:14:37.626Z,75.84
2018-09-03T03:16:30.458Z,76.23
2018-09-03T03:17:30.418Z,76.23
2018-09-03T03:19:23.218Z,76.61
2018-09-03T03:20:23.199Z,76.39
2018-09-03T03:22:16.008Z,76.32
2018-09-03T03:23:15.964Z,76.52
2018-09-03T03:25:08.790Z,76.23
2018-09-03T03:26:08.746Z,76.32
2018-09-03T03:28:01.562Z,77.38
2018-09-03T03:29:01.532Z,76.90
2018-09-03T03:30:54.347Z,77.09
2018-09-03T03:31:54.308Z,77.00
2018-09-03T03:33:47.612Z,76.52
2018-09-03T03:34:47.582Z,76.14
2018-09-03T03:36:40.407Z,76.32
2018-09-03T03:37:40.362Z,76.23
2018-09-03T03:39:33.183Z,76.48
2018-09-03T03:40:33.147Z,76.29
2018-09-03T03:42:25.988Z,76.32
2018-09-03T03:43:25.928Z,75.84
2018-09-03T03:45:18.767Z,76.39
2018-09-03T03:46:18.708Z,76.14
2018-09-03T03:48:11.519Z,76.61
2018-09-03T03:49:11.495Z,76.96
2018-09-03T03:51:04.312Z,77.15
2018-09-03T03:52:04.269Z,77.25
2018-09-03T03:53:57.085Z,77.48
2018-09-03T03:54:57.072Z,77.44
2018-09-03T03:56:49.884Z,77.73
2018-09-03T03:57:49.839Z,78.30
2018-09-03T03:59:42.646Z,77.25
2018-09-03T04:00:42.615Z,77.44
2018-09-03T04:02:35.465Z,77.63
2018-09-03T04:03:35.417Z,77.83
2018-09-03T04:05:28.225Z,78.11
2018-09-03T04:06:28.196Z,78.11
2018-09-03T04:08:21.028Z,78.02
2018-09-03T04:09:20.974Z,78.40
2018-09-03T04:11:13.794Z,77.83
2018-09-03T04:12:13.759Z,78.02
2018-09-03T04:14:06.580Z,77.92
2018-09-03T04:15:06.540Z,78.21
2018-09-03T04:16:59.384Z,77.92
2018-09-03T04:17:59.326Z,78.21
2018-09-03T04:19:52.132Z,78.21
2018-09-03T04:20:52.101Z,78.21
2018-09-03T04:22:44.926Z,77.44
2018-09-03T04:23:44.879Z,78.40
2018-09-03T04:25:37.691Z,78.21
2018-09-03T04:26:37.669Z,77.92
2018-09-03T04:28:30.487Z,78.02
2018-09-03T04:29:30.451Z,77.92
2018-09-03T04:31:23.255Z,78.21
2018-09-03T04:32:23.225Z,78.02
2018-09-03T04:34:16.060Z,78.40
2018-09-03T04:35:16.011Z,78.21
2018-09-03T04:37:08.811Z,78.11
2018-09-03T04:38:08.782Z,78.21
2018-09-03T04:40:01.620Z,78.11
2018-09-03T04:41:01.559Z,77.83
2018-09-03T04:42:54.380Z,78.21
2018-09-03T04:43:54.342Z,77.83
2018-09-03T04:45:47.171Z,78.21
2018-09-03T04:46:47.130Z,77.92
2018-09-03T04:48:39.952Z,78.02
2018-09-03T04:49:39.902Z,78.21
2018-09-03T04:51:32.721Z,78.30
2018-09-03T04:52:32.697Z,78.59
2018-09-03T04:54:25.518Z,78.50
2018-09-03T04:55:25.552Z,78.59
2018-09-03T04:57:18.771Z,78.88
2018-09-03T04:58:18.738Z,79.27
2018-09-03T05:00:11.563Z,78.88
2018-09-03T05:01:11.522Z,78.98
2018-09-03T05:03:04.383Z,78.59
2018-09-03T05:04:04.314Z,78.69
2018-09-03T05:05:57.203Z,78.69
2018-09-03T05:06:57.084Z,79.17
2018-09-03T05:08:49.892Z,79.36
2018-09-03T05:09:49.862Z,79.36
2018-09-03T05:11:42.740Z,79.27
2018-09-03T05:12:42.648Z,79.27
2018-09-03T05:14:35.476Z,80.13
2018-09-03T05:15:35.430Z,80.04
2018-09-03T05:17:28.237Z,80.13
2018-09-03T05:18:28.198Z,80.42
2018-09-03T05:20:21.028Z,80.22
2018-09-03T05:21:20.979Z,80.22
2018-09-03T05:23:13.803Z,80.22
2018-09-03T05:24:13.772Z,80.13
2018-09-03T05:26:06.595Z,80.42
2018-09-03T05:27:06.548Z,79.55
2018-09-03T05:28:59.363Z,79.55
2018-09-03T05:29:59.333Z,79.94
2018-09-03T05:31:52.168Z,79.46
2018-09-03T05:32:52.114Z,79.46
2018-09-03T05:34:44.953Z,79.46
2018-09-03T05:35:44.915Z,79.46
2018-09-03T05:37:37.743Z,79.07
2018-09-03T05:38:37.698Z,78.50
2018-09-03T05:40:30.538Z,79.07
2018-09-03T05:41:30.484Z,79.07
2018-09-03T05:43:23.415Z,79.07
2018-09-03T05:44:23.255Z,78.98
2018-09-03T05:46:16.086Z,79.27
2018-09-03T05:47:16.046Z,79.65
2018-09-03T05:49:08.869Z,79.84
2018-09-03T05:50:08.829Z,80.22
2018-09-03T05:52:01.653Z,79.36
2018-09-03T05:53:01.607Z,79.65
2018-09-03T05:54:54.439Z,80.13
2018-09-03T05:55:54.380Z,79.94
2018-09-03T05:57:47.225Z,80.61
2018-09-03T05:58:47.169Z,80.46
2018-09-03T06:00:39.983Z,80.32
2018-09-03T06:01:39.958Z,80.42
2018-09-03T06:03:32.783Z,80.13
2018-09-03T06:04:32.733Z,79.27
2018-09-03T06:06:25.559Z,79.46
2018-09-03T06:07:25.524Z,79.46
2018-09-03T06:09:18.340Z,79.36
2018-09-03T06:10:18.300Z,79.27
2018-09-03T06:12:11.131Z,79.46
2018-09-03T06:13:11.071Z,79.36
2018-09-03T06:15:03.885Z,79.07
2018-09-03T06:16:03.876Z,79.11
2018-09-03T06:17:56.743Z,79.17
2018-09-03T06:18:56.648Z,79.17
2018-09-03T06:20:49.484Z,79.11
2018-09-03T06:21:49.430Z,79.21
2018-09-03T06:23:42.240Z,78.92
2018-09-03T06:24:42.214Z,78.06
2018-09-03T06:26:35.074Z,78.53
2018-09-03T06:27:34.995Z,77.96
2018-09-03T06:29:27.820Z,78.06
2018-09-03T06:30:27.782Z,78.63
2018-09-03T06:32:20.585Z,77.67
2018-09-03T06:33:20.556Z,77.48
2018-09-03T06:35:13.382Z,77.67
2018-09-03T06:36:13.337Z,78.63
2018-09-03T06:38:06.165Z,76.81
2018-09-03T06:39:06.180Z,77.48
2018-09-03T06:40:58.940Z,76.94
2018-09-03T06:41:58.900Z,77.00
2018-09-03T06:43:51.726Z,75.79
2018-09-03T06:44:51.686Z,76.90
2018-09-03T06:46:44.506Z,77.04
2018-09-03T06:47:44.468Z,76.17
2018-09-03T06:49:38.302Z,76.26
2018-09-03T06:50:38.243Z,76.07
2018-09-03T06:52:31.082Z,75.98
2018-09-03T06:53:31.034Z,76.17
2018-09-03T06:55:23.857Z,75.11
2018-09-03T06:56:23.811Z,74.92
2018-09-03T06:58:16.626Z,75.21
2018-09-03T06:59:16.586Z,74.92
2018-09-03T07:01:09.419Z,74.29
2018-09-03T07:02:09.366Z,74.38
2018-09-03T07:04:02.187Z,74.67
2018-09-03T07:05:02.168Z,74.38
2018-09-03T07:06:55.004Z,74.67
2018-09-03T07:07:54.947Z,74.19
2018-09-03T07:09:47.786Z,74.67
2018-09-03T07:10:47.722Z,73.80
2018-09-03T07:12:41.033Z,74.38
2018-09-03T07:13:41.006Z,73.99
2018-09-03T07:15:33.836Z,74.09
2018-09-03T07:16:33.786Z,73.71
2018-09-03T07:18:26.619Z,73.71
2018-09-03T07:19:26.572Z,73.13
2018-09-03T07:21:19.403Z,73.46
2018-09-03T07:22:19.358Z,73.36
2018-09-03T07:24:12.168Z,72.39
2018-09-03T07:25:12.136Z,72.30
2018-09-03T07:27:04.961Z,72.88
2018-09-03T07:28:04.916Z,73.55
2018-09-03T07:29:57.745Z,72.49
2018-09-03T07:30:57.706Z,72.11
2018-09-03T07:32:50.527Z,72.39
2018-09-03T07:33:50.483Z,72.49
2018-09-03T07:35:43.370Z,72.49
2018-09-03T07:36:43.266Z,71.91
2018-09-03T07:38:36.114Z,71.56
2018-09-03T07:39:36.069Z,70.66
2018-09-03T07:41:28.905Z,70.70
2018-09-03T07:42:28.854Z,70.60
2018-09-03T07:44:21.664Z,70.79
2018-09-03T07:45:21.639Z,70.31
2018-09-03T07:47:14.482Z,69.93
2018-09-03T07:48:14.446Z,70.21
2018-09-03T07:50:07.232Z,69.45
2018-09-03T07:51:07.222Z,69.45
2018-09-03T07:53:00.035Z,68.96
2018-09-03T07:53:59.988Z,69.35
2018-09-03T07:55:52.798Z,69.19
2018-09-03T07:56:52.771Z,69.57
2018-09-03T07:58:45.603Z,68.99
2018-09-03T07:59:45.556Z,68.61
2018-09-03T08:01:38.364Z,69.29
2018-09-03T08:02:38.330Z,69.57
2018-09-03T08:04:31.168Z,68.23
2018-09-03T08:05:31.117Z,68.42
2018-09-03T08:07:23.992Z,68.96
2018-09-03T08:08:23.908Z,68.61
2018-09-03T08:10:16.739Z,69.35
2018-09-03T08:11:16.698Z,69.06
2018-09-03T08:13:09.523Z,69.67
2018-09-03T08:14:09.486Z,69.19
2018-09-03T08:16:02.288Z,69.64
2018-09-03T08:17:02.268Z,69.25
2018-09-03T08:18:55.110Z,68.96
2018-09-03T08:19:55.059Z,69.25
2018-09-03T08:21:47.861Z,69.73
2018-09-03T08:22:47.840Z,69.54
2018-09-03T08:24:40.660Z,69.64
2018-09-03T08:25:40.620Z,70.41
2018-09-03T08:27:33.431Z,70.31
2018-09-03T08:28:33.402Z,70.41
2018-09-03T08:30:26.227Z,70.60
2018-09-03T08:31:26.192Z,70.89
2018-09-03T08:33:19.048Z,70.02
2018-09-03T08:34:18.972Z,70.21
2018-09-03T08:36:11.811Z,70.44
2018-09-03T08:37:11.767Z,69.64
2018-09-03T08:39:04.591Z,69.87
2018-09-03T08:40:04.582Z,70.06
2018-09-03T08:41:57.376Z,69.77
2018-09-03T08:42:57.333Z,68.61
2018-09-03T08:44:50.228Z,68.99
2018-09-03T08:45:50.117Z,68.61
2018-09-03T08:47:42.934Z,68.93
2018-09-03T08:48:42.898Z,68.04
2018-09-03T08:50:35.765Z,67.55
2018-09-03T08:51:35.729Z,67.16
2018-09-03T08:53:28.528Z,67.26
2018-09-03T08:54:28.498Z,67.88
2018-09-03T08:56:21.327Z,67.97
2018-09-03T08:57:21.285Z,67.78
2018-09-03T08:59:14.112Z,67.30
2018-09-03T09:00:14.071Z,67.78
2018-09-03T09:02:06.887Z,67.78
2018-09-03T09:03:06.851Z,67.65
2018-09-03T09:04:59.676Z,67.30
2018-09-03T09:05:59.631Z,66.97
2018-09-03T09:07:52.457Z,68.45
2018-09-03T09:08:52.419Z,69.90
2018-09-03T09:10:45.243Z,69.42
2018-09-03T09:11:45.219Z,68.80
2018-09-03T09:13:38.021Z,69.77
2018-09-03T09:14:37.988Z,70.44
2018-09-03T09:16:30.813Z,69.42
2018-09-03T09:17:30.783Z,69.57
2018-09-03T09:19:23.583Z,69.77
2018-09-03T09:20:23.556Z,69.42
2018-09-03T09:22:16.397Z,68.65
2018-09-03T09:23:16.349Z,68.35
2018-09-03T09:25:09.706Z,68.74
2018-09-03T09:26:09.634Z,68.84
2018-09-03T09:28:02.456Z,68.16
2018-09-03T09:29:02.412Z,67.10
2018-09-03T09:30:55.254Z,67.00
2018-09-03T09:31:55.188Z,67.10
2018-09-03T09:33:48.009Z,67.68
2018-09-03T09:34:47.972Z,67.49
2018-09-03T09:36:40.854Z,68.16
2018-09-03T09:37:40.767Z,67.00
2018-09-03T09:39:34.081Z,67.40
2018-09-03T09:40:34.047Z,66.91
2018-09-03T09:42:27.438Z,67.49
2018-09-03T09:43:27.380Z,67.43
2018-09-03T09:45:20.688Z,65.50
2018-09-03T09:46:20.660Z,65.59
2018-09-03T09:48:13.992Z,65.20
2018-09-03T09:49:13.939Z,65.01
2018-09-03T09:51:06.759Z,65.20
2018-09-03T09:52:06.729Z,64.53
2018-09-03T09:53:59.554Z,64.11
2018-09-03T09:54:59.538Z,64.40
2018-09-03T09:56:52.830Z,64.15
2018-09-03T09:57:52.795Z,63.95
2018-09-03T09:59:45.613Z,63.05
2018-09-03T10:00:45.588Z,61.25
2018-09-03T10:02:38.908Z,59.18
2018-09-03T10:03:38.878Z,57.69
2018-09-03T10:05:32.201Z,55.58
2018-09-03T10:06:32.168Z,54.71
2018-09-03T10:08:25.488Z,54.74
2018-09-03T10:09:25.458Z,53.58
2018-09-03T10:11:18.280Z,53.58
2018-09-03T10:12:18.253Z,53.67
2018-09-03T10:14:11.079Z,54.81
2018-09-03T10:15:11.040Z,55.76
2018-09-03T10:17:03.868Z,55.88
2018-09-03T10:18:03.848Z,55.71
2018-09-03T10:19:56.680Z,54.62
2018-09-03T10:20:56.650Z,55.82
2018-09-03T10:22:49.965Z,56.79
2018-09-03T10:23:49.926Z,57.46
2018-09-03T10:25:43.243Z,56.79
2018-09-03T10:26:43.210Z,56.79
2018-09-03T10:28:36.051Z,56.60
2018-09-03T10:29:36.018Z,57.08
2018-09-03T10:31:29.825Z,57.76
2018-09-03T10:32:29.803Z,57.37
2018-09-03T10:34:22.634Z,57.11
2018-09-03T10:35:22.595Z,56.62
2018-09-03T10:37:15.415Z,56.46
2018-09-03T10:38:15.398Z,55.98
2018-09-03T10:40:08.727Z,55.49
2018-09-03T10:41:08.684Z,55.78
2018-09-03T10:43:01.997Z,54.98
2018-09-03T10:44:01.972Z,56.04
2018-09-03T10:45:54.800Z,56.50
2018-09-03T10:46:54.779Z,56.43
2018-09-03T10:48:47.587Z,56.52
2018-09-03T10:49:47.557Z,56.60
2018-09-03T10:51:40.875Z,57.37
2018-09-03T10:52:40.836Z,57.37
2018-09-03T10:54:34.191Z,57.37
2018-09-03T10:55:34.137Z,58.24
2018-09-03T10:57:27.465Z,57.66
2018-09-03T10:58:27.426Z,57.76
2018-09-03T11:00:20.802Z,58.14
2018-09-03T11:01:20.756Z,57.37
2018-09-03T11:03:14.076Z,57.56
2018-09-03T11:04:14.036Z,57.66
2018-09-03T11:06:07.376Z,57.95
2018-09-03T11:07:07.331Z,58.24
2018-09-03T11:09:00.653Z,58.24
2018-09-03T11:10:00.613Z,58.92
2018-09-03T11:11:53.487Z,57.69
2018-09-03T11:12:53.417Z,58.04
2018-09-03T11:14:46.749Z,58.24
2018-09-03T11:15:46.716Z,58.98
2018-09-03T11:17:39.536Z,59.01
2018-09-03T11:18:39.497Z,58.98
2018-09-03T11:20:32.812Z,59.86
2018-09-03T11:21:33.014Z,59.95
2018-09-03T11:23:25.616Z,59.69
2018-09-03T11:24:25.576Z,59.95
2018-09-03T11:26:18.391Z,60.14
2018-09-03T11:27:18.521Z,60.34
2018-09-03T11:29:11.201Z,61.66
2018-09-03T11:30:11.152Z,61.57
2018-09-03T11:32:03.985Z,62.79
2018-09-03T11:33:03.948Z,63.05
2018-09-03T11:34:56.859Z,63.82
2018-09-03T11:35:56.731Z,64.11
2018-09-03T11:37:49.571Z,64.50
2018-09-03T11:38:49.521Z,64.01
2018-09-03T11:40:42.873Z,64.11
2018-09-03T11:41:42.808Z,64.50
2018-09-03T11:43:35.628Z,65.08
2018-09-03T11:44:35.610Z,65.08
2018-09-03T11:46:28.930Z,65.27
2018-09-03T11:47:28.879Z,65.08
2018-09-03T11:49:22.209Z,65.43
2018-09-03T11:50:22.170Z,65.37
2018-09-03T11:52:15.493Z,65.56
2018-09-03T11:53:15.453Z,65.43
2018-09-03T11:55:08.784Z,65.72
2018-09-03T11:56:08.737Z,65.72
2018-09-03T11:58:01.573Z,65.34
2018-09-03T11:59:01.530Z,65.91
2018-09-03T12:00:54.374Z,66.59
2018-09-03T12:01:54.389Z,66.40
2018-09-03T12:03:47.153Z,66.40
2018-09-03T12:04:47.125Z,66.14
2018-09-03T12:06:39.958Z,66.05
2018-09-03T12:07:39.895Z,65.75
2018-09-03T12:09:32.719Z,65.47
2018-09-03T12:10:32.680Z,65.50
2018-09-03T12:12:25.510Z,64.14
2018-09-03T12:13:25.474Z,65.11
2018-09-03T12:15:18.793Z,64.24
2018-09-03T12:16:18.770Z,65.08
2018-09-03T12:18:12.093Z,64.89
2018-09-03T12:19:12.057Z,65.27
2018-09-03T12:21:05.424Z,64.89
2018-09-03T12:22:05.343Z,65.08
2018-09-03T12:23:58.167Z,65.08
2018-09-03T12:24:58.119Z,65.17
2018-09-03T12:26:50.942Z,65.08
2018-09-03T12:27:50.925Z,65.27
2018-09-03T12:29:44.238Z,65.47
2018-09-03T12:30:44.181Z,65.37
2018-09-03T12:32:37.011Z,65.37
2018-09-03T12:33:36.991Z,65.40
2018-09-03T12:35:30.303Z,65.47
2018-09-03T12:36:30.279Z,65.37
2018-09-03T12:38:23.586Z,65.47
2018-09-03T12:39:23.544Z,66.24
2018-09-03T12:41:16.351Z,66.36
2018-09-03T12:42:16.331Z,65.27
2018-09-03T12:44:09.164Z,65.75
2018-09-03T12:45:09.123Z,66.14
2018-09-03T12:47:01.945Z,65.66
2018-09-03T12:48:01.911Z,65.66
2018-09-03T12:49:55.239Z,65.98
2018-09-03T12:50:55.197Z,66.14
2018-09-03T12:52:48.020Z,65.78
2018-09-03T12:53:47.985Z,65.95
2018-09-03T12:55:41.316Z,65.95
2018-09-03T12:56:41.270Z,65.75
2018-09-03T12:58:34.112Z,66.24
2018-09-03T12:59:34.044Z,66.63
2018-09-03T13:01:27.386Z,66.43
2018-09-03T13:02:27.350Z,66.33
2018-09-03T13:04:20.709Z,66.05
2018-09-03T13:05:20.626Z,66.05
2018-09-03T13:07:13.450Z,66.14
2018-09-03T13:08:13.422Z,66.24
2018-09-03T13:10:06.225Z,65.75
2018-09-03T13:11:06.205Z,65.37
2018-09-03T13:12:59.067Z,65.50
2018-09-03T13:13:58.992Z,65.59
2018-09-03T13:15:51.806Z,65.78
2018-09-03T13:16:51.773Z,65.20
2018-09-03T13:18:45.145Z,65.50
2018-09-03T13:19:45.076Z,65.01
2018-09-03T13:21:37.907Z,65.30
2018-09-03T13:22:37.858Z,65.50
2018-09-03T13:24:30.702Z,64.82
2018-09-03T13:25:30.655Z,65.50
2018-09-03T13:27:23.978Z,64.79
2018-09-03T13:28:23.931Z,65.69
2018-09-03T13:30:16.747Z,65.69
2018-09-03T13:31:16.728Z,65.47
2018-09-03T13:33:10.051Z,65.40
2018-09-03T13:34:10.011Z,65.11
2018-09-03T13:36:02.852Z,64.63
2018-09-03T13:37:02.793Z,64.14
2018-09-03T13:38:55.633Z,64.72
2018-09-03T13:39:55.595Z,64.53
2018-09-03T13:41:48.892Z,64.24
2018-09-03T13:42:48.876Z,64.63
2018-09-03T13:44:41.701Z,65.11
2018-09-03T13:45:41.657Z,65.40
2018-09-03T13:47:34.492Z,65.59
2018-09-03T13:48:34.451Z,65.50
2018-09-03T13:50:27.784Z,65.56
2018-09-03T13:51:27.729Z,65.20
2018-09-03T13:53:21.072Z,65.20
2018-09-03T13:54:21.029Z,65.27
2018-09-03T13:56:14.339Z,65.75
2018-09-03T13:57:14.296Z,65.88
2018-09-03T13:59:07.606Z,65.75
2018-09-03T14:00:07.587Z,66.40
2018-09-03T14:02:00.425Z,66.59
2018-09-03T14:03:00.372Z,67.11
2018-09-03T14:04:53.251Z,66.91
2018-09-03T14:05:53.163Z,67.40
2018-09-03T14:07:46.537Z,67.49
2018-09-03T14:08:46.447Z,66.72
2018-09-03T14:10:39.780Z,67.69
2018-09-03T14:11:39.822Z,67.49
2018-09-03T14:13:33.075Z,67.20
2018-09-03T14:14:33.016Z,67.40
2018-09-03T14:16:25.840Z,66.75
2018-09-03T14:17:25.804Z,67.14
2018-09-03T14:19:19.148Z,65.88
2018-09-03T14:20:19.103Z,66.56
2018-09-03T14:22:12.435Z,66.33
2018-09-03T14:23:12.383Z,66.85
2018-09-03T14:25:05.222Z,66.94
2018-09-03T14:26:05.179Z,67.20
2018-09-03T14:27:57.992Z,67.62
2018-09-03T14:28:57.959Z,67.14
2018-09-03T14:30:51.293Z,67.52
2018-09-03T14:31:51.240Z,67.40
2018-09-03T14:33:44.069Z,67.30
2018-09-03T14:34:44.035Z,67.91
2018-09-03T14:36:37.371Z,68.01
2018-09-03T14:37:37.329Z,67.14
2018-09-03T14:39:30.653Z,67.49
2018-09-03T14:40:30.615Z,67.24
2018-09-03T14:42:23.439Z,67.88
2018-09-03T14:43:23.390Z,68.26
2018-09-03T14:45:16.303Z,68.01
2018-09-03T14:46:16.195Z,67.40
2018-09-03T14:48:09.512Z,68.07
2018-09-03T14:49:09.471Z,68.36
2018-09-03T14:51:02.789Z,67.91
2018-09-03T14:52:02.754Z,68.20
2018-09-03T14:53:56.076Z,67.04
2018-09-03T14:54:56.039Z,67.52
2018-09-03T14:56:49.365Z,67.14
2018-09-03T14:57:49.320Z,67.43
2018-09-03T14:59:42.140Z,67.43
2018-09-03T15:00:42.115Z,67.14
2018-09-03T15:02:35.427Z,66.75
2018-09-03T15:03:35.386Z,66.85
2018-09-03T15:05:28.701Z,67.17
2018-09-03T15:06:28.673Z,66.59
2018-09-03T15:08:21.532Z,66.05
2018-09-03T15:09:21.465Z,65.47
2018-09-03T15:11:14.300Z,64.98
2018-09-03T15:12:14.250Z,65.17
2018-09-03T15:14:07.595Z,64.31
2018-09-03T15:15:07.738Z,64.21
2018-09-03T15:17:00.876Z,64.31
2018-09-03T15:18:00.835Z,64.40
2018-09-03T15:19:53.671Z,65.24
2018-09-03T15:20:53.625Z,65.63
2018-09-03T15:22:46.952Z,66.01
2018-09-03T15:23:46.915Z,65.63
2018-09-03T15:25:40.232Z,64.98
2018-09-03T15:26:40.234Z,64.98
2018-09-03T15:28:33.540Z,64.95
2018-09-03T15:29:33.498Z,64.95
2018-09-03T15:31:27.810Z,66.01
2018-09-03T15:32:27.776Z,65.72
2018-09-03T15:34:21.103Z,65.82
2018-09-03T15:35:21.058Z,65.92
2018-09-03T15:37:13.884Z,65.82
2018-09-03T15:38:13.852Z,65.82
2018-09-03T15:40:07.164Z,65.82
2018-09-03T15:41:07.128Z,66.20
2018-09-03T15:43:00.062Z,65.75
2018-09-03T15:43:59.928Z,65.72
2018-09-03T15:45:52.746Z,65.63
2018-09-03T15:46:52.727Z,65.72
2018-09-03T15:48:45.614Z,66.59
2018-09-03T15:49:45.508Z,66.50
2018-09-03T15:51:38.329Z,65.92
2018-09-03T15:52:38.301Z,65.92
2018-09-03T15:54:31.134Z,66.30
2018-09-03T15:55:31.083Z,66.20
2018-09-03T15:57:23.903Z,66.59
2018-09-03T15:58:23.881Z,66.69
2018-09-03T16:00:17.200Z,66.88
2018-09-03T16:01:17.156Z,66.88
2018-09-03T16:03:10.544Z,67.27
2018-09-03T16:04:10.444Z,66.88
2018-09-03T16:06:03.769Z,67.91
2018-09-03T16:07:03.733Z,67.27
2018-09-03T16:08:56.613Z,67.62
2018-09-03T16:09:56.517Z,68.01
2018-09-03T16:11:49.837Z,68.59
2018-09-03T16:12:49.799Z,68.88
2018-09-03T16:14:43.164Z,69.17
2018-09-03T16:15:43.114Z,69.36
2018-09-03T16:17:35.933Z,69.26
2018-09-03T16:18:35.894Z,69.56
2018-09-03T16:20:29.418Z,69.90
2018-09-03T16:21:29.196Z,69.65
2018-09-03T16:23:22.493Z,69.94
2018-09-03T16:24:22.465Z,69.84
2018-09-03T16:26:15.804Z,69.65
2018-09-03T16:27:15.776Z,69.90
2018-09-03T16:29:08.564Z,69.90
2018-09-03T16:30:08.545Z,70.48
2018-09-03T16:32:01.863Z,71.16
2018-09-03T16:33:01.815Z,71.36
2018-09-03T16:34:55.143Z,71.74
2018-09-03T16:35:55.150Z,71.74
2018-09-03T16:37:47.912Z,72.48
2018-09-03T16:38:48.003Z,72.09
2018-09-03T16:40:40.714Z,71.90
2018-09-03T16:41:40.682Z,72.00
2018-09-03T16:43:33.988Z,72.00
2018-09-03T16:44:33.963Z,72.28
2018-09-03T16:46:27.283Z,72.67
2018-09-03T16:47:27.239Z,72.67
2018-09-03T16:49:20.551Z,72.58
2018-09-03T16:50:20.520Z,72.28
2018-09-03T16:52:13.354Z,72.48
2018-09-03T16:53:13.312Z,72.48
2018-09-03T16:55:06.661Z,72.86
2018-09-03T16:56:06.600Z,73.35
2018-09-03T16:57:59.435Z,73.44
2018-09-03T16:58:59.407Z,73.44
2018-09-03T17:00:52.304Z,73.06
2018-09-03T17:01:52.197Z,73.35
2018-09-03T17:03:45.013Z,73.44
2018-09-03T17:04:44.982Z,73.54
2018-09-03T17:06:38.319Z,73.44
2018-09-03T17:07:38.401Z,73.15
2018-09-03T17:09:31.076Z,73.93
2018-09-03T17:10:31.049Z,73.63
2018-09-03T17:12:23.880Z,73.44
2018-09-03T17:13:23.902Z,73.73
2018-09-03T17:15:16.658Z,73.54
2018-09-03T17:16:16.625Z,73.93
2018-09-03T17:18:09.471Z,74.12
2018-09-03T17:19:09.417Z,73.83
2018-09-03T17:21:02.238Z,74.02
2018-09-03T17:22:02.200Z,74.21
2018-09-03T17:23:55.041Z,74.21
2018-09-03T17:24:54.995Z,74.21
2018-09-03T17:26:48.335Z,74.12
2018-09-03T17:27:48.282Z,73.93
2018-09-03T17:29:41.088Z,74.69
2018-09-03T17:30:41.056Z,74.51
2018-09-03T17:32:33.890Z,74.21
2018-09-03T17:33:33.847Z,74.41
2018-09-03T17:35:26.663Z,75.09
2018-09-03T17:36:26.637Z,74.76
2018-09-03T17:38:19.466Z,74.66
2018-09-03T17:39:19.431Z,75.27
2018-09-03T17:41:12.251Z,74.79
2018-09-03T17:42:12.226Z,75.34
2018-09-03T17:44:05.056Z,75.27
2018-09-03T17:45:05.006Z,74.89
2018-09-03T17:46:58.440Z,75.24
2018-09-03T17:47:58.288Z,74.66
2018-09-03T17:49:51.146Z,75.82
2018-09-03T17:50:51.071Z,75.18
2018-09-03T17:52:43.886Z,75.43
2018-09-03T17:53:43.849Z,75.62
2018-09-03T17:55:36.683Z,75.34
2018-09-03T17:56:36.648Z,75.24
2018-09-03T17:58:29.963Z,76.01
2018-09-03T17:59:29.928Z,75.82
2018-09-03T18:01:23.263Z,75.82
2018-09-03T18:02:23.219Z,75.72
2018-09-03T18:04:16.553Z,75.82
2018-09-03T18:05:16.488Z,76.20
2018-09-03T18:07:09.311Z,76.01
2018-09-03T18:08:09.337Z,76.10
2018-09-03T18:10:02.608Z,76.20
2018-09-03T18:11:02.564Z,76.20
2018-09-03T18:12:55.390Z,76.59
2018-09-03T18:13:55.353Z,76.40
2018-09-03T18:15:48.186Z,76.50
2018-09-03T18:16:48.138Z,76.68
2018-09-03T18:18:40.964Z,76.40
2018-09-03T18:19:40.925Z,76.20
2018-09-03T18:21:34.315Z,76.59
2018-09-03T18:22:34.208Z,77.07
2018-09-03T18:24:27.527Z,77.26
2018-09-03T18:25:27.499Z,77.17
2018-09-03T18:27:20.329Z,77.36
2018-09-03T18:28:20.305Z,77.07
2018-09-03T18:30:13.187Z,77.84
2018-09-03T18:31:13.068Z,77.71
2018-09-03T18:33:05.880Z,77.65